Rechercher aéroport 
image banner adimage banner adimage banner ad
image banner ad

KBTP - Butler County/K W Scholter Field

Situé à Butler, United States

ICAO - BTP, IATA - BTP

Données fournies par Airmate  

Information générale

Coordonnées: N40°46'36" W79°57'4"
Élévation : 1248 feet MSL.
Variation magnétique : -08° East
Voir autres Aéroports à Pennsylvania

Données opérationnelles

Special qualification required
Heure actuelle UTC:
Heure actuelle locale:
Météo
METAR: KBTP 132113Z AUTO 27006KT 9SM TSRA FEW060 SCT080 BKN100 25/21 A2984 RMK AO2 LTG DSNT W AND NW TSB07RAB02 P0000 $
Voir NOTAMs / SUP AIP / TFR affectant cet aéroport [VIEW]
Fréquences de communication: [VIEW]

Pistes:

Identifiant RWYQFULongueur (ft)Largeur (ft)SurfaceLDA (ft)
0872°4801100ASPH
26252°4801100ASPH

Coordonnées de l'aéroport

Adresse: Butler United States

Autres services d'aviation

Écoles de pilotage

Airquest Aviation, Lp

Airquest Aviation, Lp

High Flight Academy

High Flight Academy

Vue satellite de KBTP